Time;durP1;ratioP1;P1;durP2;ratioP2;P2;SDS_P1;SDS_P2;PMS_P1;PMS_P2;Temp;Humidity;BMP_temperature;BMP_pressure;BME280_temperature;BME280_humidity;BME280_pressure;Samples;Min_cycle;Max_cycle;Signal;HPM_P1;HPM_P2
2023/06/29 00:00:48;;;;;;;4.60;2.70;;;16.30;1.00;;;;;;4976571;28;20398;-77
2023/06/29 00:03:41;;;;;;;5.00;2.87;;;16.30;1.00;;;;;;4993794;28;20419;-77
2023/06/29 00:06:39;;;;;;;5.00;3.07;;;16.20;1.00;;;;;;4996435;28;20180;-77
2023/06/29 00:09:05;;;;;;;3.10;2.80;;;16.20;1.00;;;;;;4978236;28;20490;-73
2023/06/29 00:11:31;;;;;;;3.37;2.73;;;16.20;1.00;;;;;;4994202;28;20520;-73
2023/06/29 00:13:57;;;;;;;7.13;2.80;;;16.10;1.00;;;;;;4997880;28;20442;-73
2023/06/29 00:16:35;;;;;;;6.87;3.00;;;16.10;1.00;;;;;;4993731;28;20211;-73
2023/06/29 00:19:11;;;;;;;4.80;3.43;;;16.20;1.00;;;;;;4994858;28;20472;-73
2023/06/29 00:21:37;;;;;;;5.60;3.60;;;16.10;1.00;;;;;;4993455;28;20838;-73
2023/06/29 00:24:03;;;;;;;4.10;3.10;;;16.10;1.00;;;;;;4994041;28;20831;-73
2023/06/29 00:26:33;;;;;;;5.47;3.10;;;16.10;1.00;;;;;;4993204;28;20640;-73
2023/06/29 00:28:59;;;;;;;7.10;2.80;;;16.00;1.00;;;;;;4993771;28;20939;-73
2023/06/29 00:31:25;;;;;;;5.97;3.53;;;16.00;1.00;;;;;;4992278;28;20413;-73
2023/06/29 00:33:51;;;;;;;5.73;3.43;;;16.00;1.00;;;;;;4982134;28;20186;-73
2023/06/29 00:36:17;;;;;;;5.23;3.60;;;16.00;1.00;;;;;;4992786;28;20191;-73
2023/06/29 00:38:42;;;;;;;3.67;2.80;;;16.10;1.00;;;;;;4992839;28;20486;-73
2023/06/29 00:41:15;;;;;;;5.33;3.40;;;16.00;1.00;;;;;;4994092;28;20427;-73
2023/06/29 00:43:43;;;;;;;9.73;3.33;;;16.00;1.00;;;;;;4994271;28;20180;-73
2023/06/29 00:46:09;;;;;;;4.20;3.50;;;15.90;1.00;;;;;;4994885;28;20436;-73
2023/06/29 00:48:38;;;;;;;15.20;5.70;;;16.00;1.00;;;;;;4996893;28;20960;-73
2023/06/29 00:51:05;;;;;;;24.97;6.57;;;16.00;1.00;;;;;;5010195;28;20443;-73
2023/06/29 00:53:33;;;;;;;13.13;4.50;;;15.80;1.00;;;;;;4997548;28;20424;-74
2023/06/29 00:56:01;;;;;;;8.67;3.53;;;15.80;1.00;;;;;;4995105;28;20498;-73
2023/06/29 00:58:28;;;;;;;6.93;3.90;;;15.80;1.00;;;;;;4997246;28;20435;-73
2023/06/29 01:00:55;;;;;;;5.47;3.30;;;15.70;1.00;;;;;;4995352;28;20418;-74
2023/06/29 01:03:22;;;;;;;4.43;3.37;;;15.80;1.00;;;;;;4998692;28;20405;-73
2023/06/29 01:05:56;;;;;;;7.00;3.70;;;15.80;1.00;;;;;;4996785;28;20384;-72
2023/06/29 01:08:29;;;;;;;15.17;4.00;;;15.80;1.00;;;;;;4981521;28;20440;-73
2023/06/29 01:11:01;;;;;;;5.40;3.70;;;15.80;1.00;;;;;;4992546;28;20472;-73
2023/06/29 01:13:27;;;;;;;8.73;3.57;;;15.80;1.00;;;;;;4990589;28;20473;-73
2023/06/29 01:15:53;;;;;;;12.33;3.07;;;;;;;;;;4996440;28;20512;-73
2023/06/29 01:18:21;;;;;;;8.80;3.30;;;15.70;1.00;;;;;;4998552;28;20465;-73
2023/06/29 01:20:49;;;;;;;5.50;3.40;;;15.70;1.00;;;;;;4996805;28;20785;-73
2023/06/29 01:23:24;;;;;;;5.20;3.53;;;15.70;1.00;;;;;;4997503;28;20464;-73
2023/06/29 01:25:58;;;;;;;3.53;3.23;;;15.70;1.00;;;;;;5016662;28;20834;-77
2023/06/29 01:32:33;;;;;;;5.67;3.63;;;15.60;1.00;;;;;;4996274;28;20424;-77
2023/06/29 01:35:27;;;;;;;4.10;3.37;;;15.50;1.00;;;;;;4996765;28;20384;-77
2023/06/29 01:38:40;;;;;;;8.73;3.67;;;15.50;1.00;;;;;;4996231;28;20383;-77
2023/06/29 01:41:29;;;;;;;5.43;3.53;;;15.40;1.00;;;;;;4996568;28;20528;-77
2023/06/29 01:47:22;;;;;;;11.50;3.73;;;15.40;1.00;;;;;;4993041;28;20935;-77
2023/06/29 01:50:09;;;;;;;5.00;3.40;;;15.40;1.00;;;;;;4995984;28;20882;-77
2023/06/29 01:56:27;;;;;;;12.47;3.33;;;15.30;1.00;;;;;;4993578;28;20787;-77
2023/06/29 01:59:39;;;;;;;11.07;3.70;;;15.30;1.00;;;;;;4993926;28;20459;-77
2023/06/29 02:06:09;;;;;;;3.67;3.30;;;15.10;1.00;;;;;;4995534;28;20405;-77
2023/06/29 02:09:03;;;;;;;4.67;3.40;;;15.10;1.00;;;;;;5009949;28;20464;-77
2023/06/29 02:11:39;;;;;;;6.63;4.10;;;15.10;1.00;;;;;;4976641;28;20741;-77
2023/06/29 02:14:39;;;;;;;21.97;3.90;;;15.00;1.00;;;;;;5003934;28;20951;-77
2023/06/29 02:21:09;;;;;;;8.10;3.97;;;15.00;1.00;;;;;;4995307;28;20463;-77
2023/06/29 02:23:46;;;;;;;5.13;3.80;;;15.00;1.00;;;;;;4976155;28;20423;-77
2023/06/29 02:29:33;;;;;;;13.50;3.87;;;14.90;1.00;;;;;;4982513;28;20431;-78
2023/06/29 02:39:27;;;;;;;7.13;3.33;;;14.80;1.00;;;;;;5001861;28;20463;-77
2023/06/29 02:41:53;;;;;;;7.03;4.00;;;14.80;1.00;;;;;;5003330;28;20499;-72
2023/06/29 02:44:18;;;;;;;5.53;3.70;;;14.80;1.00;;;;;;4995308;28;20411;-73
2023/06/29 02:46:46;;;;;;;13.93;4.13;;;14.80;1.00;;;;;;5009832;28;20276;-73
2023/06/29 02:49:13;;;;;;;10.70;4.50;;;14.80;1.00;;;;;;4999041;28;20185;-73
2023/06/29 02:51:39;;;;;;;8.90;3.63;;;14.80;1.00;;;;;;4994682;28;20417;-73
2023/06/29 02:54:05;;;;;;;4.87;4.27;;;14.80;1.00;;;;;;4983752;28;20500;-73
2023/06/29 02:57:09;;;;;;;18.03;4.67;;;14.80;1.00;;;;;;4993167;28;20201;-77
2023/06/29 03:00:09;;;;;;;9.13;4.10;;;14.70;1.00;;;;;;4994586;28;20244;-78
2023/06/29 03:03:09;;;;;;;8.60;5.10;;;14.60;1.00;;;;;;4996526;28;20378;-82
2023/06/29 03:05:39;;;;;;;4.47;4.03;;;14.60;1.00;;;;;;4996959;28;20530;-82
2023/06/29 03:08:39;;;;;;;8.50;4.33;;;14.60;1.00;;;;;;4981163;28;20395;-82
2023/06/29 03:11:09;;;;;;;11.50;4.03;;;14.60;1.00;;;;;;4998887;28;20407;-82
2023/06/29 03:16:57;;;;;;;13.27;3.90;;;14.60;1.00;;;;;;5000662;28;20468;-82
2023/06/29 03:19:40;;;;;;;7.17;4.30;;;14.60;1.00;;;;;;5006665;28;20484;-82
2023/06/29 03:22:40;;;;;;;4.43;3.73;;;14.60;1.00;;;;;;5015636;28;20546;-82
2023/06/29 03:25:06;;;;;;;10.20;4.43;;;14.60;1.00;;;;;;5002014;28;20413;-87
2023/06/29 03:27:33;;;;;;;10.80;4.33;;;;;;;;;;5001100;28;20411;-88
2023/06/29 03:30:33;;;;;;;6.70;4.37;;;14.60;1.00;;;;;;4990553;28;20822;-88
2023/06/29 03:33:39;;;;;;;19.33;5.00;;;14.60;1.00;;;;;;4996170;28;20418;-88
2023/06/29 03:36:11;;;;;;;7.73;5.03;;;14.60;1.00;;;;;;4997530;28;20431;-88
2023/06/29 03:42:09;;;;;;;7.43;4.17;;;14.60;1.00;;;;;;4995015;28;20458;-87
2023/06/29 03:44:36;;;;;;;9.93;4.93;;;14.50;1.00;;;;;;4994713;28;20437;-88
2023/06/29 03:47:09;;;;;;;5.93;4.17;;;14.60;1.00;;;;;;4993776;28;20402;-87
2023/06/29 03:52:57;;;;;;;8.33;4.50;;;14.60;1.00;;;;;;4995217;28;20377;-87
2023/06/29 03:55:39;;;;;;;6.10;4.20;;;14.60;1.00;;;;;;4994016;28;20399;-83
2023/06/29 03:58:39;;;;;;;7.17;4.30;;;14.70;1.00;;;;;;5009042;28;20602;-82
2023/06/29 04:01:39;;;;;;;8.47;5.67;;;14.80;1.00;;;;;;5005742;28;20873;-82
2023/06/29 04:04:09;;;;;;;5.37;4.70;;;14.80;1.00;;;;;;4992694;28;20420;-82
2023/06/29 04:06:40;;;;;;;10.00;4.33;;;14.80;1.00;;;;;;4993744;28;20449;-82
2023/06/29 04:09:11;;;;;;;6.47;4.60;;;14.80;1.00;;;;;;4992254;28;20473;-82
2023/06/29 04:11:39;;;;;;;5.40;4.73;;;14.90;1.00;;;;;;5000217;28;20454;-82
2023/06/29 04:14:39;;;;;;;5.80;5.10;;;14.90;1.00;;;;;;5009332;28;20489;-82
2023/06/29 04:17:39;;;;;;;8.73;5.40;;;15.10;1.00;;;;;;4997937;28;20399;-82
2023/06/29 04:20:10;;;;;;;9.33;5.10;;;15.10;1.00;;;;;;4991388;28;20435;-82
2023/06/29 04:22:40;;;;;;;5.57;4.43;;;15.10;1.00;;;;;;5001964;28;20432;-81
2023/06/29 04:25:06;;;;;;;8.07;4.80;;;15.20;1.00;;;;;;4996032;28;20854;-82
2023/06/29 04:27:57;;;;;;;7.90;4.73;;;15.30;1.00;;;;;;5005991;28;20395;-88
2023/06/29 04:31:15;;;;;;;7.60;5.13;;;15.30;1.00;;;;;;5013863;28;20417;-88
2023/06/29 04:33:41;;;;;;;12.30;4.80;;;15.40;1.00;;;;;;5016775;28;20387;-88
2023/06/29 04:36:13;;;;;;;10.60;4.80;;;15.50;1.00;;;;;;5000977;28;20411;-87
2023/06/29 04:38:39;;;;;;;7.90;4.90;;;15.60;1.00;;;;;;4999694;28;20203;-87
2023/06/29 04:41:05;;;;;;;23.00;6.07;;;15.60;1.00;;;;;;5001426;28;20422;-87
2023/06/29 04:43:39;;;;;;;11.50;5.93;;;15.70;1.00;;;;;;4997324;28;20408;-88
2023/06/29 04:46:47;;;;;;;7.80;5.13;;;15.80;1.00;;;;;;4996652;28;20190;-88
2023/06/29 04:49:32;;;;;;;9.57;5.50;;;16.00;1.00;;;;;;5011971;28;20445;-88
2023/06/29 04:52:10;;;;;;;12.47;5.77;;;16.00;1.00;;;;;;4996735;28;20463;-88
2023/06/29 04:54:40;;;;;;;10.50;5.50;;;16.10;1.00;;;;;;4995002;28;20424;-88
2023/06/29 04:57:12;;;;;;;8.70;5.43;;;16.30;1.00;;;;;;5001050;28;20503;-82
2023/06/29 05:00:11;;;;;;;14.20;5.77;;;16.40;1.00;;;;;;5018717;28;20545;-82
2023/06/29 05:03:09;;;;;;;8.20;5.10;;;16.60;1.00;;;;;;4994439;28;20499;-82
2023/06/29 05:05:39;;;;;;;9.60;5.40;;;16.60;1.00;;;;;;4981457;28;20431;-81
2023/06/29 05:08:06;;;;;;;10.43;5.53;;;16.70;1.00;;;;;;4999623;28;20838;-82
2023/06/29 05:10:39;;;;;;;6.73;5.43;;;16.80;1.00;;;;;;5007666;28;20762;-82
2023/06/29 05:13:22;;;;;;;8.83;5.20;;;17.00;1.00;;;;;;5000966;28;20793;-82
2023/06/29 05:16:39;;;;;;;6.97;5.57;;;17.00;1.00;;;;;;5001112;28;20435;-82
2023/06/29 05:19:09;;;;;;;9.83;5.13;;;17.30;1.00;;;;;;4995742;28;20473;-81
2023/06/29 05:21:40;;;;;;;7.00;5.37;;;17.30;1.00;;;;;;5009005;28;20929;-81
2023/06/29 05:24:09;;;;;;;5.83;5.23;;;17.50;1.00;;;;;;5011492;28;20438;-82
2023/06/29 05:26:40;;;;;;;13.77;5.83;;;17.50;1.00;;;;;;4990508;28;20492;-82
2023/06/29 05:29:09;;;;;;;6.47;5.13;;;17.60;1.00;;;;;;4978309;28;20474;-81
2023/06/29 05:31:51;;;;;;;12.23;5.53;;;17.70;1.00;;;;;;4993411;28;20509;-82
2023/06/29 05:34:17;;;;;;;8.00;5.07;;;17.80;1.00;;;;;;4983758;28;20520;-82
2023/06/29 05:37:09;;;;;;;6.67;5.00;;;18.00;1.00;;;;;;5010844;28;20808;-82
2023/06/29 05:39:39;;;;;;;8.70;5.83;;;18.20;1.00;;;;;;4981912;28;20223;-82
2023/06/29 05:42:15;;;;;;;5.70;5.10;;;18.40;1.00;;;;;;4993141;28;20939;-89
2023/06/29 05:44:45;;;;;;;5.97;5.07;;;18.50;1.00;;;;;;4997629;28;20450;-89
2023/06/29 05:47:39;;;;;;;5.73;4.57;;;18.70;1.00;;;;;;4987762;28;20527;-89
2023/06/29 05:50:45;;;;;;;8.70;4.90;;;18.90;1.00;;;;;;5011007;28;20499;-89
2023/06/29 05:53:27;;;;;;;7.30;4.87;;;18.90;1.00;;;;;;4989778;28;20433;-89
2023/06/29 05:56:09;;;;;;;5.20;4.53;;;19.10;1.00;;;;;;4996648;28;20468;-89
2023/06/29 05:58:39;;;;;;;8.20;4.17;;;19.20;1.00;;;;;;4994832;28;20968;-82
2023/06/29 06:01:39;;;;;;;5.90;4.63;;;19.40;1.00;;;;;;5004275;28;20962;-82
2023/06/29 06:04:09;;;;;;;5.03;4.43;;;19.50;1.00;;;;;;5001179;28;20578;-82
2023/06/29 06:06:40;;;;;;;6.63;4.80;;;19.60;1.00;;;;;;4998667;28;20443;-83
2023/06/29 06:09:10;;;;;;;7.50;4.70;;;19.80;1.00;;;;;;5014489;28;20470;-82
2023/06/29 06:11:40;;;;;;;4.40;4.00;;;19.90;1.00;;;;;;5014547;28;20931;-88
2023/06/29 06:14:09;;;;;;;13.53;4.47;;;20.30;1.00;;;;;;5015234;28;20488;-89
2023/06/29 06:16:35;;;;;;;10.67;4.50;;;20.30;1.00;;;;;;5008151;28;20928;-90
2023/06/29 06:19:10;;;;;;;5.20;4.00;;;20.50;1.00;;;;;;4996309;28;20459;-89
2023/06/29 06:21:40;;;;;;;5.60;4.73;;;20.60;1.00;;;;;;5006624;28;20197;-89
2023/06/29 06:24:10;;;;;;;9.93;3.93;;;20.80;1.00;;;;;;5014511;28;20399;-90
2023/06/29 06:26:42;;;;;;;7.83;4.27;;;21.10;1.00;;;;;;5004654;28;20444;-84
2023/06/29 06:29:19;;;;;;;7.80;4.20;;;21.30;1.00;;;;;;4976117;28;20464;-81
2023/06/29 06:32:09;;;;;;;8.03;4.13;;;21.40;1.00;;;;;;5000523;28;20419;-81
2023/06/29 06:34:40;;;;;;;14.53;4.67;;;21.40;1.00;;;;;;4998525;28;20810;-81
2023/06/29 06:37:10;;;;;;;6.43;4.43;;;21.60;1.00;;;;;;4999406;28;20451;-81
2023/06/29 06:39:46;;;;;;;4.07;3.60;;;21.70;1.00;;;;;;5019740;28;20544;-81
2023/06/29 06:42:16;;;;;;;9.67;4.50;;;21.80;1.00;;;;;;5001840;28;20427;-89
2023/06/29 06:44:52;;;;;;;5.00;3.70;;;22.10;1.00;;;;;;4994055;28;20446;-89
2023/06/29 06:47:51;;;;;;;5.73;3.53;;;22.30;1.00;;;;;;4995606;28;20428;-89
2023/06/29 06:51:09;;;;;;;8.60;3.80;;;22.50;1.00;;;;;;5006318;28;20412;-89
2023/06/29 06:57:15;;;;;;;4.43;3.30;;;22.80;1.00;;;;;;4999569;28;20835;-83
2023/06/29 06:59:46;;;;;;;5.73;3.73;;;22.80;1.00;;;;;;5003772;28;20460;-81
2023/06/29 07:09:27;;;;;;;3.67;3.37;;;23.30;1.00;;;;;;4983911;28;20465;-81
2023/06/29 07:12:45;;;;;;;6.00;3.43;;;23.50;1.00;;;;;;4989510;28;20446;-81
2023/06/29 07:15:22;;;;;;;3.90;3.10;;;;;;;;;;5000819;28;20471;-89
2023/06/29 07:21:09;;;;;;;3.87;2.60;;;23.90;1.00;;;;;;5000237;28;20463;-91
2023/06/29 07:26:57;;;;;;;9.37;3.50;;;24.20;1.00;;;;;;4985069;28;20200;-90
2023/06/29 07:29:46;;;;;;;5.23;3.00;;;24.20;1.00;;;;;;4999672;28;20436;-90
2023/06/29 07:32:16;;;;;;;4.37;2.90;;;24.30;1.00;;;;;;5007128;28;20216;-90
2023/06/29 07:34:58;;;;;;;3.73;2.80;;;24.30;1.00;;;;;;4984695;28;20532;-90
2023/06/29 07:38:15;;;;;;;4.10;2.90;;;24.50;1.00;;;;;;4984148;28;20419;-90
2023/06/29 07:41:05;;;;;;;5.63;3.17;;;24.60;1.00;;;;;;4993553;28;20889;-90
2023/06/29 07:44:15;;;;;;;4.30;2.60;;;24.60;1.00;;;;;;4979086;28;20424;-90
2023/06/29 07:46:45;;;;;;;8.30;3.13;;;24.90;1.00;;;;;;4993098;28;20924;-90
2023/06/29 07:49:16;;;;;;;4.17;2.80;;;25.10;1.00;;;;;;4993727;28;20855;-90
2023/06/29 07:52:09;;;;;;;3.27;2.67;;;25.10;1.00;;;;;;4982661;28;20429;-90
2023/06/29 07:54:46;;;;;;;12.23;2.60;;;25.30;1.00;;;;;;4993393;28;20405;-91
2023/06/29 07:57:57;;;;;;;4.40;3.30;;;25.30;1.00;;;;;;4996167;28;20839;-90
2023/06/29 08:00:45;;;;;;;3.97;2.60;;;25.30;1.00;;;;;;4996899;28;20436;-83
2023/06/29 08:03:11;;;;;;;3.70;2.90;;;25.40;1.00;;;;;;4998086;28;20407;-83
2023/06/29 08:05:46;;;;;;;4.60;2.60;;;25.40;1.00;;;;;;4993100;28;20428;-83
2023/06/29 08:08:22;;;;;;;4.37;2.67;;;25.60;1.00;;;;;;5006836;28;20202;-83
2023/06/29 08:14:09;;;;;;;3.63;2.73;;;25.90;1.00;;;;;;5006494;28;20467;-90
2023/06/29 08:16:35;;;;;;;5.97;2.70;;;26.10;1.00;;;;;;5020087;28;20436;-88
2023/06/29 08:19:45;;;;;;;7.43;2.90;;;26.20;1.00;;;;;;5004212;28;20235;-90
2023/06/29 08:22:16;;;;;;;2.40;2.07;;;26.60;1.00;;;;;;5000923;28;20182;-89
2023/06/29 08:24:46;;;;;;;2.30;2.20;;;;;;;;;;5012641;28;20960;-90
2023/06/29 08:27:16;;;;;;;3.20;2.67;;;26.80;1.00;;;;;;4997214;28;20542;-90
2023/06/29 08:29:46;;;;;;;2.50;1.93;;;;;;;;;;4996630;28;20878;-83
2023/06/29 08:32:16;;;;;;;5.67;1.60;;;27.00;1.00;;;;;;5012034;28;20434;-83
2023/06/29 08:34:46;;;;;;;2.30;2.10;;;27.00;1.00;;;;;;5011755;28;20439;-82
2023/06/29 08:37:45;;;;;;;8.73;1.97;;;26.80;1.00;;;;;;4995524;28;20446;-84
2023/06/29 08:40:20;;;;;;;2.90;2.00;;;26.40;1.00;;;;;;4993191;28;20965;-82
2023/06/29 08:46:17;;;;;;;4.93;2.10;;;26.70;1.00;;;;;;5004393;28;20419;-90
2023/06/29 08:48:46;;;;;;;4.83;2.23;;;;;;;;;;5000355;28;20536;-88
2023/06/29 08:51:46;;;;;;;10.40;2.37;;;27.00;1.00;;;;;;4988195;28;20437;-90
2023/06/29 08:54:16;;;;;;;2.40;2.10;;;27.00;1.00;;;;;;4995144;28;20448;-90
2023/06/29 08:56:47;;;;;;;2.03;1.80;;;27.20;1.00;;;;;;4986761;28;20454;-89
2023/06/29 08:59:16;;;;;;;2.20;1.73;;;27.20;1.00;;;;;;4994364;28;20580;-83
2023/06/29 09:01:46;;;;;;;1.87;1.77;;;27.10;1.00;;;;;;5001371;28;20432;-84
2023/06/29 09:04:45;;;;;;;2.50;1.40;;;27.20;1.00;;;;;;4986628;28;20455;-83
2023/06/29 09:10:33;;;;;;;2.10;1.23;;;27.40;1.00;;;;;;4989441;28;20440;-83
2023/06/29 09:13:27;;;;;;;10.60;0.90;;;27.60;1.00;;;;;;4987101;28;20428;-83
2023/06/29 09:16:00;;;;;;;2.23;1.33;;;27.60;1.00;;;;;;5000601;28;20436;-90
2023/06/29 09:22:27;;;;;;;2.07;1.60;;;27.70;1.00;;;;;;4982227;28;20464;-90
2023/06/29 09:25:11;;;;;;;1.93;1.40;;;27.70;1.00;;;;;;5003831;28;20481;-89
2023/06/29 09:28:15;;;;;;;1.60;1.30;;;28.00;1.00;;;;;;4985422;28;20536;-90
2023/06/29 09:31:35;;;;;;;1.10;1.10;;;28.40;1.00;;;;;;4982810;28;20501;-90
2023/06/29 09:34:51;;;;;;;2.60;1.60;;;28.60;1.00;;;;;;4991903;28;20466;-90
2023/06/29 09:37:22;;;;;;;2.40;1.30;;;28.90;1.00;;;;;;4992002;28;20514;-89
2023/06/29 09:43:40;;;;;;;1.57;1.47;;;29.40;1.00;;;;;;4989517;28;20427;-90
2023/06/29 09:46:09;;;;;;;2.90;1.13;;;29.80;1.00;;;;;;4986331;28;20475;-83
2023/06/29 09:52:39;;;;;;;1.43;1.10;;;30.40;1.00;;;;;;4998163;28;20392;-83
2023/06/29 09:55:05;;;;;;;2.50;2.10;;;30.50;1.00;;;;;;4998378;28;20436;-83
2023/06/29 09:57:31;;;;;;;2.57;1.60;;;30.60;1.00;;;;;;4992914;28;20441;-82
2023/06/29 09:59:57;;;;;;;10.87;2.60;;;30.90;1.00;;;;;;4989908;28;20228;-88
2023/06/29 10:02:22;;;;;;;1.67;1.57;;;30.90;1.00;;;;;;4989507;28;20185;-90
2023/06/29 10:04:52;;;;;;;2.97;1.60;;;30.50;1.00;;;;;;4987760;28;20428;-90
2023/06/29 10:07:19;;;;;;;2.90;1.60;;;30.60;1.00;;;;;;4994506;28;20205;-90
2023/06/29 10:09:48;;;;;;;3.80;1.50;;;30.40;1.00;;;;;;4995866;28;20417;-90
2023/06/29 10:12:16;;;;;;;1.47;1.40;;;30.20;1.00;;;;;;4996477;28;20440;-90
2023/06/29 10:14:46;;;;;;;2.20;1.63;;;30.40;1.00;;;;;;4991973;28;20445;-90
2023/06/29 10:17:19;;;;;;;4.87;1.57;;;30.60;1.00;;;;;;4998389;28;20447;-90
2023/06/29 10:19:46;;;;;;;3.23;1.77;;;30.70;1.00;;;;;;4994422;28;20499;-90
2023/06/29 10:22:15;;;;;;;1.87;1.77;;;30.60;1.00;;;;;;4986389;28;20433;-90
2023/06/29 10:24:53;;;;;;;3.20;1.80;;;30.70;1.00;;;;;;4983918;28;20443;-90
2023/06/29 10:27:21;;;;;;;1.77;1.67;;;31.00;1.00;;;;;;4997275;28;20447;-90
2023/06/29 10:29:48;;;;;;;1.90;1.77;;;31.20;1.00;;;;;;5020257;28;20427;-83
2023/06/29 10:33:03;;;;;;;2.30;1.73;;;31.50;1.00;;;;;;4995572;28;20444;-83
2023/06/29 10:38:51;;;;;;;1.50;1.40;;;31.80;1.00;;;;;;4994444;28;20471;-83
2023/06/29 10:41:51;;;;;;;1.80;1.70;;;31.80;1.00;;;;;;5004232;28;20428;-82
2023/06/29 10:44:21;;;;;;;2.57;1.60;;;31.60;1.00;;;;;;4988271;28;20433;-89
2023/06/29 10:47:24;;;;;;;1.70;1.60;;;31.60;1.00;;;;;;4984384;28;20445;-89
2023/06/29 10:53:27;;;;;;;1.57;1.47;;;31.60;1.00;;;;;;4979483;28;20417;-90
2023/06/29 11:06:01;;;;;;;2.80;1.63;;;31.50;1.00;;;;;;4990189;28;20463;-82
2023/06/29 11:12:10;;;;;;;4.10;1.60;;;30.70;1.00;;;;;;4997020;28;20413;-83
2023/06/29 11:21:28;;;;;;;1.90;1.67;;;30.50;1.00;;;;;;4975783;28;21065;-89
2023/06/29 11:27:28;;;;;;;2.97;1.67;;;29.90;1.00;;;;;;4991411;28;20487;-89
2023/06/29 11:39:59;;;;;;;1.70;1.60;;;29.40;1.00;;;;;;4983066;28;20539;-82
2023/06/29 11:42:51;;;;;;;1.43;1.33;;;29.20;1.00;;;;;;4998009;28;20801;-82
2023/06/29 11:45:23;;;;;;;3.13;1.90;;;28.70;1.00;;;;;;4999718;28;20188;-89
2023/06/29 11:51:17;;;;;;;2.10;1.73;;;;;;;;;;5006509;28;20397;-90
2023/06/29 11:57:05;;;;;;;2.40;1.90;;;;;;;;;;4975801;28;20943;-90
2023/06/29 11:59:49;;;;;;;2.60;2.10;;;27.80;1.00;;;;;;4990781;28;20468;-89
2023/06/29 12:06:03;;;;;;;4.10;2.20;;;27.60;1.00;;;;;;4976838;28;20415;-89
2023/06/29 12:08:38;;;;;;;6.13;2.00;;;27.30;1.00;;;;;;4990456;28;20429;-90
2023/06/29 12:11:04;;;;;;;2.83;1.97;;;27.20;1.00;;;;;;4981800;28;20436;-89
2023/06/29 12:14:12;;;;;;;4.50;2.00;;;27.20;1.00;;;;;;4993502;28;20512;-90
2023/06/29 12:20:24;;;;;;;4.00;2.50;;;27.00;1.00;;;;;;4974402;28;20466;-82
2023/06/29 12:26:12;;;;;;;2.37;2.17;;;26.80;1.00;;;;;;4982722;28;20808;-82
2023/06/29 12:32:02;;;;;;;5.80;1.83;;;26.90;1.00;;;;;;5010625;28;20234;-82
2023/06/29 12:34:31;;;;;;;7.07;1.90;;;26.80;1.00;;;;;;4994174;28;20437;-82
2023/06/29 12:40:18;;;;;;;7.73;1.97;;;26.90;1.00;;;;;;4995371;28;20483;-82
2023/06/29 12:43:39;;;;;;;4.30;1.97;;;26.90;1.00;;;;;;5006690;28;20930;-83
2023/06/29 12:49:27;;;;;;;7.63;2.10;;;27.00;1.00;;;;;;4994535;28;20438;-83
2023/06/29 12:52:39;;;;;;;3.47;1.90;;;27.10;1.00;;;;;;4998962;28;20444;-82
2023/06/29 12:58:28;;;;;;;2.93;2.20;;;;;;;;;;4987297;28;20444;-83
2023/06/29 13:00:57;;;;;;;5.53;2.17;;;27.70;1.00;;;;;;5012324;28;20420;-80
2023/06/29 13:03:28;;;;;;;5.63;2.00;;;;;;;;;;5002401;28;20475;-79
2023/06/29 13:06:33;;;;;;;9.60;2.03;;;27.70;1.00;;;;;;4996703;28;20467;-79
2023/06/29 13:16:03;;;;;;;3.23;2.20;;;27.80;1.00;;;;;;4977529;28;20493;-78
2023/06/29 13:18:46;;;;;;;3.67;2.50;;;28.40;1.00;;;;;;4994696;28;20416;-79
2023/06/29 13:24:47;;;;;;;3.20;2.60;;;29.20;1.00;;;;;;4992899;28;20415;-79
2023/06/29 13:30:35;;;;;;;1.90;1.80;;;29.70;1.00;;;;;;4996595;28;20383;-79
2023/06/29 13:33:01;;;;;;;6.73;3.00;;;30.00;1.00;;;;;;5000776;28;20432;-74
2023/06/29 13:35:27;;;;;;;4.87;2.90;;;29.90;1.00;;;;;;5012254;28;20412;-74
2023/06/29 13:37:58;;;;;;;5.07;2.50;;;29.50;1.00;;;;;;5014803;28;20203;-74
2023/06/29 13:40:23;;;;;;;8.40;3.10;;;29.30;1.00;;;;;;5008050;28;20711;-74
2023/06/29 13:42:49;;;;;;;4.17;2.70;;;29.20;1.00;;;;;;5000271;28;20443;-74
2023/06/29 13:45:15;;;;;;;4.97;2.77;;;29.10;1.00;;;;;;5014348;28;20182;-74
2023/06/29 13:48:15;;;;;;;2.80;2.60;;;29.10;1.00;;;;;;5016337;28;20156;-79
2023/06/29 13:54:22;;;;;;;9.40;2.70;;;29.70;1.00;;;;;;4995751;28;20415;-79
2023/06/29 14:00:10;;;;;;;2.97;2.67;;;29.90;1.00;;;;;;4995840;28;20461;-79
2023/06/29 14:06:34;;;;;;;2.50;2.30;;;30.60;1.00;;;;;;5009827;28;20419;-79
2023/06/29 14:09:33;;;;;;;4.50;2.73;;;30.80;1.00;;;;;;4978249;28;20536;-79
2023/06/29 14:12:51;;;;;;;4.20;3.00;;;30.80;1.00;;;;;;4995789;28;20511;-79
2023/06/29 14:16:09;;;;;;;5.17;3.07;;;31.10;1.00;;;;;;4988476;28;20413;-79
2023/06/29 14:18:35;;;;;;;5.63;2.70;;;31.20;1.00;;;;;;4996248;28;20468;-79
2023/06/29 14:24:23;;;;;;;4.47;2.87;;;31.10;1.00;;;;;;4976110;28;20182;-79
2023/06/29 14:33:33;;;;;;;4.23;3.20;;;32.20;1.00;;;;;;4998705;28;20504;-74
2023/06/29 14:36:00;;;;;;;7.70;2.93;;;32.00;1.00;;;;;;4995111;28;20453;-74
2023/06/29 14:38:25;;;;;;;6.03;2.50;;;31.40;1.00;;;;;;5010558;28;20420;-74
2023/06/29 14:40:51;;;;;;;7.60;2.77;;;31.30;1.00;;;;;;5005926;28;20895;-74
2023/06/29 14:43:22;;;;;;;4.73;2.97;;;31.40;1.00;;;;;;4995526;28;20185;-74
2023/06/29 14:45:47;;;;;;;5.50;2.90;;;31.60;1.00;;;;;;4995748;28;20581;-74
2023/06/29 14:48:16;;;;;;;9.13;2.83;;;31.60;1.00;;;;;;4994404;28;20432;-74
2023/06/29 14:50:46;;;;;;;10.73;2.60;;;31.90;1.00;;;;;;4995592;28;20272;-74
2023/06/29 14:53:11;;;;;;;4.20;2.80;;;32.20;1.00;;;;;;4993003;28;20431;-75
2023/06/29 14:55:37;;;;;;;5.00;2.93;;;32.40;1.00;;;;;;4992861;28;20511;-74
2023/06/29 14:58:04;;;;;;;3.10;2.80;;;32.60;1.00;;;;;;4996706;28;20242;-74
2023/06/29 15:00:31;;;;;;;5.27;2.77;;;32.70;1.00;;;;;;5001877;28;20211;-74
2023/06/29 15:03:39;;;;;;;2.63;2.40;;;32.50;1.00;;;;;;4998840;28;20438;-79
2023/06/29 15:12:58;;;;;;;6.13;3.07;;;32.00;1.00;;;;;;5006592;28;20528;-79
2023/06/29 15:18:45;;;;;;;3.40;3.10;;;32.00;1.00;;;;;;4992322;28;20522;-74
2023/06/29 15:21:16;;;;;;;5.27;3.20;;;32.00;1.00;;;;;;4998568;28;20448;-74
2023/06/29 15:23:42;;;;;;;7.57;3.27;;;32.30;1.00;;;;;;4999325;28;20236;-74
2023/06/29 15:26:07;;;;;;;4.90;3.20;;;32.50;1.00;;;;;;4997598;28;20881;-74
2023/06/29 15:28:33;;;;;;;3.57;2.87;;;32.50;1.00;;;;;;4994690;28;20173;-74
2023/06/29 15:30:59;;;;;;;4.50;3.17;;;32.70;1.00;;;;;;4989755;28;20252;-75
2023/06/29 15:33:41;;;;;;;5.57;3.10;;;33.00;1.00;;;;;;4993369;28;20633;-79
2023/06/29 15:36:34;;;;;;;8.90;2.70;;;33.30;1.00;;;;;;4992896;28;20515;-79
2023/06/29 15:42:21;;;;;;;3.30;3.00;;;33.70;1.00;;;;;;4993647;28;20512;-79
2023/06/29 15:48:09;;;;;;;5.70;3.30;;;33.00;1.00;;;;;;4988669;28;20281;-79
2023/06/29 15:51:27;;;;;;;6.23;3.73;;;32.50;1.00;;;;;;4988670;28;20461;-79
2023/06/29 16:00:38;;;;;;;4.20;3.40;;;30.50;1.00;;;;;;4974946;28;20484;-79
2023/06/29 16:03:04;;;;;;;9.33;3.50;;;30.10;1.00;;;;;;4981289;28;20414;-74
2023/06/29 16:05:34;;;;;;;5.80;3.50;;;29.90;1.00;;;;;;4994109;28;20443;-74
2023/06/29 16:08:00;;;;;;;4.50;3.60;;;29.70;1.00;;;;;;4994035;28;20483;-74
2023/06/29 16:10:26;;;;;;;11.40;4.10;;;29.60;1.00;;;;;;4993758;28;20412;-74
2023/06/29 16:12:52;;;;;;;6.53;4.17;;;29.50;1.00;;;;;;4993880;28;20531;-74
2023/06/29 16:15:17;;;;;;;6.70;3.97;;;29.40;1.00;;;;;;4993316;28;20182;-74
2023/06/29 16:21:39;;;;;;;11.63;4.00;;;29.60;1.00;;;;;;4978299;28;20221;-79
2023/06/29 16:27:26;;;;;;;14.80;4.27;;;29.80;1.00;;;;;;4985231;28;20412;-79
2023/06/29 16:33:14;;;;;;;15.60;4.53;;;30.20;1.00;;;;;;5009112;28;20247;-79
2023/06/29 16:35:40;;;;;;;39.13;5.40;;;30.50;1.00;;;;;;4994217;28;20413;-79
2023/06/29 16:38:05;;;;;;;19.20;4.50;;;30.80;1.00;;;;;;4978250;28;20506;-79
2023/06/29 16:47:15;;;;;;;7.70;5.43;;;33.50;1.00;;;;;;4999791;28;20422;-79
2023/06/29 16:53:27;;;;;;;63.47;7.30;;;34.10;1.00;;;;;;4997040;28;20177;-80
2023/06/29 17:02:37;;;;;;;7.97;5.10;;;34.20;1.00;;;;;;5007115;28;20404;-79
2023/06/29 17:05:03;;;;;;;13.17;5.67;;;33.80;1.00;;;;;;4991618;28;20441;-75
2023/06/29 17:07:29;;;;;;;13.80;5.30;;;33.70;1.00;;;;;;4999613;28;20200;-75
2023/06/29 17:09:54;;;;;;;10.17;5.13;;;33.60;1.00;;;;;;4995992;28;20588;-75
2023/06/29 17:12:20;;;;;;;15.43;5.43;;;33.40;1.00;;;;;;5000307;28;20272;-74
2023/06/29 17:14:47;;;;;;;7.73;5.20;;;33.30;1.00;;;;;;5000510;28;20178;-75
2023/06/29 17:17:12;;;;;;;20.37;6.40;;;32.90;1.00;;;;;;4999590;28;20181;-75
2023/06/29 17:19:39;;;;;;;11.20;5.70;;;32.50;1.00;;;;;;4998384;28;20460;-74
2023/06/29 17:22:11;;;;;;;11.93;5.83;;;32.30;1.00;;;;;;4999549;28;20519;-74
2023/06/29 17:24:40;;;;;;;15.60;5.50;;;32.10;1.00;;;;;;4992167;28;20499;-74
2023/06/29 17:27:07;;;;;;;19.40;5.50;;;31.80;1.00;;;;;;4997431;28;20470;-74
2023/06/29 17:29:33;;;;;;;19.37;5.97;;;31.40;1.00;;;;;;4994928;28;20814;-74
2023/06/29 17:31:59;;;;;;;21.00;6.43;;;31.20;1.00;;;;;;4995995;28;20441;-74
2023/06/29 17:34:24;;;;;;;29.00;6.40;;;31.00;1.00;;;;;;5007652;28;20255;-74
2023/06/29 17:36:50;;;;;;;32.73;6.53;;;30.90;1.00;;;;;;5002612;28;20178;-74
2023/06/29 17:39:16;;;;;;;8.90;6.00;;;30.80;1.00;;;;;;5002347;28;20632;-74
2023/06/29 17:41:42;;;;;;;19.23;6.20;;;30.70;1.00;;;;;;4998437;28;20181;-74